sensor_id;sensor_type;location;lat;lon;timestamp;pressure;altitude;pressure_sealevel;temperature;humidity
77207;BME280;66190;50.708;7.906;2024-03-02T00:00:36;94992.94;;;6.18;85.34
77207;BME280;66190;50.708;7.906;2024-03-02T00:03:02;94996.66;;;6.10;85.32
77207;BME280;66190;50.708;7.906;2024-03-02T00:05:27;94994.59;;;6.12;85.35
77207;BME280;66190;50.708;7.906;2024-03-02T00:07:54;94982.91;;;6.13;84.51
77207;BME280;66190;50.708;7.906;2024-03-02T00:10:25;94988.63;;;6.23;84.58
77207;BME280;66190;50.708;7.906;2024-03-02T00:12:55;94992.50;;;6.21;84.40
77207;BME280;66190;50.708;7.906;2024-03-02T00:17:55;94996.88;;;6.09;85.35
77207;BME280;66190;50.708;7.906;2024-03-02T00:20:24;95003.47;;;6.06;85.65
77207;BME280;66190;50.708;7.906;2024-03-02T00:23:08;95003.25;;;6.08;85.70
77207;BME280;66190;50.708;7.906;2024-03-02T00:25:43;95001.41;;;6.02;85.65
77207;BME280;66190;50.708;7.906;2024-03-02T00:28:27;95003.47;;;6.00;86.43
77207;BME280;66190;50.708;7.906;2024-03-02T00:30:58;95001.19;;;6.03;86.29
77207;BME280;66190;50.708;7.906;2024-03-02T00:33:32;95002.44;;;6.07;86.45
77207;BME280;66190;50.708;7.906;2024-03-02T00:35:58;95005.50;;;6.11;85.91
77207;BME280;66190;50.708;7.906;2024-03-02T00:38:25;95010.19;;;6.22;85.41
77207;BME280;66190;50.708;7.906;2024-03-02T00:40:51;95012.63;;;6.30;85.79
77207;BME280;66190;50.708;7.906;2024-03-02T00:46:06;95012.25;;;6.20;87.30
77207;BME280;66190;50.708;7.906;2024-03-02T00:48:32;95014.66;;;6.28;87.39
77207;BME280;66190;50.708;7.906;2024-03-02T00:51:01;95007.53;;;6.22;87.92
77207;BME280;66190;50.708;7.906;2024-03-02T00:53:26;95000.75;;;6.19;87.90
77207;BME280;66190;50.708;7.906;2024-03-02T00:55:52;95006.44;;;6.29;87.99
77207;BME280;66190;50.708;7.906;2024-03-02T00:58:18;94998.25;;;6.24;88.49
77207;BME280;66190;50.708;7.906;2024-03-02T01:00:43;95013.44;;;6.30;87.71
77207;BME280;66190;50.708;7.906;2024-03-02T01:03:09;95011.56;;;6.37;87.87
77207;BME280;66190;50.708;7.906;2024-03-02T01:05:36;95003.56;;;6.31;88.74
77207;BME280;66190;50.708;7.906;2024-03-02T01:08:01;95011.34;;;6.39;87.90
77207;BME280;66190;50.708;7.906;2024-03-02T01:10:26;95011.97;;;6.34;87.79
77207;BME280;66190;50.708;7.906;2024-03-02T01:12:52;95010.13;;;6.35;87.92
77207;BME280;66190;50.708;7.906;2024-03-02T01:15:18;95005.81;;;6.34;88.26
77207;BME280;66190;50.708;7.906;2024-03-02T01:17:44;95010.34;;;6.33;88.61
77207;BME280;66190;50.708;7.906;2024-03-02T01:20:10;94990.03;;;6.26;88.92
77207;BME280;66190;50.708;7.906;2024-03-02T01:22:35;94998.00;;;6.39;87.18
77207;BME280;66190;50.708;7.906;2024-03-02T01:25:01;94987.72;;;6.42;86.67
77207;BME280;66190;50.708;7.906;2024-03-02T01:27:27;94993.03;;;6.42;87.27
77207;BME280;66190;50.708;7.906;2024-03-02T01:29:52;94987.31;;;6.39;87.29
77207;BME280;66190;50.708;7.906;2024-03-02T01:32:17;94978.47;;;6.38;86.20
77207;BME280;66190;50.708;7.906;2024-03-02T01:34:43;94977.59;;;6.51;85.50
77207;BME280;66190;50.708;7.906;2024-03-02T01:37:08;94980.88;;;6.53;85.28
77207;BME280;66190;50.708;7.906;2024-03-02T01:39:35;94969.41;;;6.46;86.14
77207;BME280;66190;50.708;7.906;2024-03-02T01:42:01;94967.97;;;6.43;85.68
77207;BME280;66190;50.708;7.906;2024-03-02T01:44:26;94966.28;;;6.49;85.73
77207;BME280;66190;50.708;7.906;2024-03-02T01:46:52;94971.03;;;6.47;86.42
77207;BME280;66190;50.708;7.906;2024-03-02T01:49:17;94952.97;;;6.42;86.02
77207;BME280;66190;50.708;7.906;2024-03-02T01:51:44;94953.03;;;6.36;86.85
77207;BME280;66190;50.708;7.906;2024-03-02T01:54:09;94965.72;;;6.40;86.35
77207;BME280;66190;50.708;7.906;2024-03-02T01:56:34;94956.66;;;6.41;86.05
77207;BME280;66190;50.708;7.906;2024-03-02T01:59:00;94963.41;;;6.50;85.96
77207;BME280;66190;50.708;7.906;2024-03-02T02:01:25;94958.22;;;6.55;84.69
77207;BME280;66190;50.708;7.906;2024-03-02T02:03:51;94961.75;;;6.56;84.80
77207;BME280;66190;50.708;7.906;2024-03-02T02:06:17;94953.94;;;6.54;84.40
77207;BME280;66190;50.708;7.906;2024-03-02T02:08:43;94954.38;;;6.51;85.02
77207;BME280;66190;50.708;7.906;2024-03-02T02:11:08;94946.59;;;6.43;84.66
77207;BME280;66190;50.708;7.906;2024-03-02T02:13:33;94941.03;;;6.45;84.46
77207;BME280;66190;50.708;7.906;2024-03-02T02:16:08;94936.91;;;6.49;84.57
77207;BME280;66190;50.708;7.906;2024-03-02T02:18:34;94933.59;;;6.53;84.00
77207;BME280;66190;50.708;7.906;2024-03-02T02:21:01;94940.31;;;6.62;84.00
77207;BME280;66190;50.708;7.906;2024-03-02T02:23:26;94940.06;;;6.39;85.20
77207;BME280;66190;50.708;7.906;2024-03-02T02:25:52;94933.28;;;6.37;85.39
77207;BME280;66190;50.708;7.906;2024-03-02T02:28:17;94934.31;;;6.36;84.53
77207;BME280;66190;50.708;7.906;2024-03-02T02:30:42;94925.44;;;6.42;84.48
77207;BME280;66190;50.708;7.906;2024-03-02T02:33:08;94926.72;;;6.33;85.33
77207;BME280;66190;50.708;7.906;2024-03-02T02:35:34;94918.50;;;6.34;84.56
77207;BME280;66190;50.708;7.906;2024-03-02T02:37:59;94914.47;;;6.25;85.24
77207;BME280;66190;50.708;7.906;2024-03-02T02:40:26;94918.19;;;6.18;85.50
77207;BME280;66190;50.708;7.906;2024-03-02T02:42:52;94909.69;;;6.27;85.23
77207;BME280;66190;50.708;7.906;2024-03-02T02:45:17;94918.63;;;6.15;85.74
77207;BME280;66190;50.708;7.906;2024-03-02T02:47:43;94917.00;;;6.07;86.27
77207;BME280;66190;50.708;7.906;2024-03-02T02:50:10;94916.41;;;5.99;87.35
77207;BME280;66190;50.708;7.906;2024-03-02T02:52:37;94914.72;;;6.11;87.13
77207;BME280;66190;50.708;7.906;2024-03-02T02:55:05;94919.44;;;6.09;86.54
77207;BME280;66190;50.708;7.906;2024-03-02T02:57:34;94914.16;;;6.02;86.78
77207;BME280;66190;50.708;7.906;2024-03-02T03:00:08;94915.78;;;6.03;86.71
77207;BME280;66190;50.708;7.906;2024-03-02T03:02:40;94917.47;;;5.91;86.93
77207;BME280;66190;50.708;7.906;2024-03-02T03:05:08;94916.47;;;5.92;86.45
77207;BME280;66190;50.708;7.906;2024-03-02T03:07:34;94923.19;;;5.95;85.95
77207;BME280;66190;50.708;7.906;2024-03-02T03:10:03;94915.78;;;6.03;85.49
77207;BME280;66190;50.708;7.906;2024-03-02T03:12:30;94910.47;;;5.97;85.83
77207;BME280;66190;50.708;7.906;2024-03-02T03:14:56;94913.97;;;5.97;85.72
77207;BME280;66190;50.708;7.906;2024-03-02T03:17:22;94916.00;;;6.02;85.58
77207;BME280;66190;50.708;7.906;2024-03-02T03:19:48;94917.28;;;5.86;85.96
77207;BME280;66190;50.708;7.906;2024-03-02T03:22:13;94904.13;;;5.91;85.78
77207;BME280;66190;50.708;7.906;2024-03-02T03:24:39;94916.03;;;5.82;86.35
77207;BME280;66190;50.708;7.906;2024-03-02T03:27:04;94909.91;;;5.82;86.24
77207;BME280;66190;50.708;7.906;2024-03-02T03:29:30;94912.34;;;5.90;85.50
77207;BME280;66190;50.708;7.906;2024-03-02T03:31:55;94903.72;;;5.81;86.11
77207;BME280;66190;50.708;7.906;2024-03-02T03:34:20;94907.66;;;5.78;86.42
77207;BME280;66190;50.708;7.906;2024-03-02T03:36:46;94905.38;;;5.75;86.44
77207;BME280;66190;50.708;7.906;2024-03-02T03:39:11;94907.44;;;5.73;86.50
77207;BME280;66190;50.708;7.906;2024-03-02T03:41:37;94910.56;;;5.64;87.12
77207;BME280;66190;50.708;7.906;2024-03-02T03:44:02;94908.09;;;5.69;86.31
77207;BME280;66190;50.708;7.906;2024-03-02T03:46:28;94912.22;;;5.58;87.09
77207;BME280;66190;50.708;7.906;2024-03-02T03:48:54;94913.00;;;5.72;86.77
77207;BME280;66190;50.708;7.906;2024-03-02T03:51:21;94903.78;;;5.61;87.24
77207;BME280;66190;50.708;7.906;2024-03-02T03:53:48;94907.28;;;5.62;86.83
77207;BME280;66190;50.708;7.906;2024-03-02T03:56:13;94911.00;;;5.61;86.89
77207;BME280;66190;50.708;7.906;2024-03-02T03:58:38;94910.38;;;5.59;87.13
77207;BME280;66190;50.708;7.906;2024-03-02T04:01:04;94918.00;;;5.49;87.38
77207;BME280;66190;50.708;7.906;2024-03-02T04:03:29;94919.41;;;5.51;87.36
77207;BME280;66190;50.708;7.906;2024-03-02T04:05:55;94916.50;;;5.59;87.52
77207;BME280;66190;50.708;7.906;2024-03-02T04:08:21;94920.84;;;5.60;87.08
77207;BME280;66190;50.708;7.906;2024-03-02T04:10:46;94923.94;;;5.44;87.39
77207;BME280;66190;50.708;7.906;2024-03-02T04:13:12;94923.53;;;5.47;87.90
77207;BME280;66190;50.708;7.906;2024-03-02T04:15:37;94930.31;;;5.50;87.30
77207;BME280;66190;50.708;7.906;2024-03-02T04:18:03;94918.81;;;5.43;87.41
77207;BME280;66190;50.708;7.906;2024-03-02T04:20:28;94924.56;;;5.46;87.35
77207;BME280;66190;50.708;7.906;2024-03-02T04:22:55;94921.69;;;5.48;87.17
77207;BME280;66190;50.708;7.906;2024-03-02T04:25:20;94920.03;;;5.53;86.92
77207;BME280;66190;50.708;7.906;2024-03-02T04:27:46;94919.19;;;5.53;87.00
77207;BME280;66190;50.708;7.906;2024-03-02T04:30:12;94921.69;;;5.41;87.43
77207;BME280;66190;50.708;7.906;2024-03-02T04:32:37;94916.78;;;5.38;87.52
77207;BME280;66190;50.708;7.906;2024-03-02T04:35:04;94916.38;;;5.41;87.66
77207;BME280;66190;50.708;7.906;2024-03-02T04:37:31;94918.00;;;5.36;87.57
77207;BME280;66190;50.708;7.906;2024-03-02T04:39:57;94923.78;;;5.33;87.29
77207;BME280;66190;50.708;7.906;2024-03-02T04:42:22;94923.31;;;5.42;87.01
77207;BME280;66190;50.708;7.906;2024-03-02T04:44:48;94919.06;;;5.35;87.16
77207;BME280;66190;50.708;7.906;2024-03-02T04:47:13;94921.69;;;5.41;87.12
77207;BME280;66190;50.708;7.906;2024-03-02T04:49:39;94931.34;;;5.36;87.52
77207;BME280;66190;50.708;7.906;2024-03-02T04:52:04;94935.63;;;5.37;87.71
77207;BME280;66190;50.708;7.906;2024-03-02T04:54:29;94927.06;;;5.35;87.68
77207;BME280;66190;50.708;7.906;2024-03-02T04:56:55;94925.22;;;5.29;87.67
77207;BME280;66190;50.708;7.906;2024-03-02T04:59:20;94929.31;;;5.31;87.42
77207;BME280;66190;50.708;7.906;2024-03-02T05:01:46;94929.31;;;5.31;87.50
77207;BME280;66190;50.708;7.906;2024-03-02T05:04:12;94931.56;;;5.34;87.46
77207;BME280;66190;50.708;7.906;2024-03-02T05:06:41;94933.59;;;5.32;87.27
77207;BME280;66190;50.708;7.906;2024-03-02T05:09:09;94935.69;;;5.17;88.11
77207;BME280;66190;50.708;7.906;2024-03-02T05:11:35;94937.53;;;5.17;88.17
77207;BME280;66190;50.708;7.906;2024-03-02T05:14:07;94943.25;;;5.20;87.88
77207;BME280;66190;50.708;7.906;2024-03-02T05:16:33;94949.03;;;5.17;88.62
77207;BME280;66190;50.708;7.906;2024-03-02T05:18:59;94954.94;;;5.13;88.53
77207;BME280;66190;50.708;7.906;2024-03-02T05:21:24;94955.34;;;5.16;88.53
77207;BME280;66190;50.708;7.906;2024-03-02T05:23:50;94955.78;;;5.13;88.51
77207;BME280;66190;50.708;7.906;2024-03-02T05:26:15;94961.50;;;5.23;88.07
77207;BME280;66190;50.708;7.906;2024-03-02T05:28:41;94959.88;;;5.16;88.37
77207;BME280;66190;50.708;7.906;2024-03-02T05:31:10;94967.25;;;5.20;88.17
77207;BME280;66190;50.708;7.906;2024-03-02T05:33:37;94967.25;;;5.20;87.95
77207;BME280;66190;50.708;7.906;2024-03-02T05:36:03;94970.75;;;5.21;87.81
77207;BME280;66190;50.708;7.906;2024-03-02T05:38:29;94972.78;;;5.32;87.86
77207;BME280;66190;50.708;7.906;2024-03-02T05:40:55;94972.38;;;5.35;87.67
77207;BME280;66190;50.708;7.906;2024-03-02T05:43:20;94973.00;;;5.30;88.07
77207;BME280;66190;50.708;7.906;2024-03-02T05:45:45;94974.44;;;5.33;88.02
77207;BME280;66190;50.708;7.906;2024-03-02T05:48:11;94979.34;;;5.29;87.69
77207;BME280;66190;50.708;7.906;2024-03-02T05:50:36;94972.19;;;5.30;88.17
77207;BME280;66190;50.708;7.906;2024-03-02T05:53:02;94968.47;;;5.37;87.92
77207;BME280;66190;50.708;7.906;2024-03-02T05:55:27;94966.44;;;5.33;87.70
77207;BME280;66190;50.708;7.906;2024-03-02T05:57:53;94965.41;;;5.27;87.92
77207;BME280;66190;50.708;7.906;2024-03-02T06:00:37;94975.84;;;5.35;87.67
77207;BME280;66190;50.708;7.906;2024-03-02T06:03:04;94970.53;;;5.35;87.77
77207;BME280;66190;50.708;7.906;2024-03-02T06:05:29;94961.91;;;5.27;87.70
77207;BME280;66190;50.708;7.906;2024-03-02T06:07:54;94971.38;;;5.23;88.07
77207;BME280;66190;50.708;7.906;2024-03-02T06:10:20;94969.28;;;5.25;87.89
77207;BME280;66190;50.708;7.906;2024-03-02T06:12:46;94979.97;;;5.25;87.40
77207;BME280;66190;50.708;7.906;2024-03-02T06:15:11;94986.34;;;5.24;87.23
77207;BME280;66190;50.708;7.906;2024-03-02T06:17:36;94988.38;;;5.15;87.55
77207;BME280;66190;50.708;7.906;2024-03-02T06:20:02;94989.19;;;5.35;86.62
77207;BME280;66190;50.708;7.906;2024-03-02T06:22:28;94986.09;;;5.32;86.61
77207;BME280;66190;50.708;7.906;2024-03-02T06:24:53;94987.34;;;5.16;86.89
77207;BME280;66190;50.708;7.906;2024-03-02T06:27:18;94995.38;;;5.23;86.50
77207;BME280;66190;50.708;7.906;2024-03-02T06:29:44;94995.97;;;5.18;86.70
77207;BME280;66190;50.708;7.906;2024-03-02T06:32:09;95003.78;;;5.33;86.12
77207;BME280;66190;50.708;7.906;2024-03-02T06:34:35;94997.19;;;5.29;86.49
77207;BME280;66190;50.708;7.906;2024-03-02T06:37:00;95009.72;;;5.35;86.06
77207;BME280;66190;50.708;7.906;2024-03-02T06:39:25;95009.31;;;5.38;85.82
77207;BME280;66190;50.708;7.906;2024-03-02T06:41:51;95013.19;;;5.35;86.32
77207;BME280;66190;50.708;7.906;2024-03-02T06:44:17;95013.38;;;5.34;86.04
77207;BME280;66190;50.708;7.906;2024-03-02T06:46:42;95022.84;;;5.43;86.05
77207;BME280;66190;50.708;7.906;2024-03-02T06:49:09;95018.50;;;5.55;85.76
77207;BME280;66190;50.708;7.906;2024-03-02T06:51:36;95018.09;;;5.51;85.74
77207;BME280;66190;50.708;7.906;2024-03-02T06:54:02;95010.31;;;5.50;85.82
77207;BME280;66190;50.708;7.906;2024-03-02T06:56:27;95008.44;;;5.70;85.12
77207;BME280;66190;50.708;7.906;2024-03-02T06:58:52;95019.31;;;5.68;85.22
77207;BME280;66190;50.708;7.906;2024-03-02T07:01:18;95013.19;;;5.68;85.11
77207;BME280;66190;50.708;7.906;2024-03-02T07:03:45;95016.03;;;5.86;84.42
77207;BME280;66190;50.708;7.906;2024-03-02T07:06:10;95012.34;;;5.67;84.95
77207;BME280;66190;50.708;7.906;2024-03-02T07:08:36;95015.63;;;5.63;85.05
77207;BME280;66190;50.708;7.906;2024-03-02T07:11:01;95015.00;;;5.74;84.43
77207;BME280;66190;50.708;7.906;2024-03-02T07:13:27;95011.31;;;5.68;84.65
77207;BME280;66190;50.708;7.906;2024-03-02T07:15:52;95015.81;;;5.74;84.26
77207;BME280;66190;50.708;7.906;2024-03-02T07:18:35;95024.44;;;5.90;83.38
77207;BME280;66190;50.708;7.906;2024-03-02T07:21:09;95023.63;;;5.96;83.40
77207;BME280;66190;50.708;7.906;2024-03-02T07:23:35;95026.69;;;5.99;83.17
77207;BME280;66190;50.708;7.906;2024-03-02T07:26:00;95031.16;;;6.12;82.87
77207;BME280;66190;50.708;7.906;2024-03-02T07:28:27;95040.63;;;6.01;82.92
77207;BME280;66190;50.708;7.906;2024-03-02T07:31:03;95045.75;;;6.09;82.98
77207;BME280;66190;50.708;7.906;2024-03-02T07:33:30;95031.75;;;6.14;82.61
77207;BME280;66190;50.708;7.906;2024-03-02T07:35:55;95040.44;;;5.96;82.96
77207;BME280;66190;50.708;7.906;2024-03-02T07:38:21;95030.59;;;5.97;83.13
77207;BME280;66190;50.708;7.906;2024-03-02T07:40:48;95039.56;;;6.22;82.48
77207;BME280;66190;50.708;7.906;2024-03-02T07:43:16;95034.81;;;6.30;82.13
77207;BME280;66190;50.708;7.906;2024-03-02T07:45:42;95040.97;;;6.24;82.17
77207;BME280;66190;50.708;7.906;2024-03-02T07:48:07;95047.56;;;6.22;82.29
77207;BME280;66190;50.708;7.906;2024-03-02T07:50:33;95042.81;;;6.24;82.15
77207;BME280;66190;50.708;7.906;2024-03-02T07:53:03;95056.84;;;6.70;82.86
77207;BME280;66190;50.708;7.906;2024-03-02T07:55:29;95046.63;;;6.98;80.41
77207;BME280;66190;50.708;7.906;2024-03-02T07:57:56;95051.44;;;6.76;79.55
77207;BME280;66190;50.708;7.906;2024-03-02T08:00:23;95039.91;;;6.82;79.98
77207;BME280;66190;50.708;7.906;2024-03-02T08:02:49;95060.94;;;6.66;80.20
77207;BME280;66190;50.708;7.906;2024-03-02T08:05:16;95057.28;;;6.60;80.26
77207;BME280;66190;50.708;7.906;2024-03-02T08:07:43;95047.00;;;6.57;80.57
77207;BME280;66190;50.708;7.906;2024-03-02T08:10:09;95052.31;;;6.64;80.41
77207;BME280;66190;50.708;7.906;2024-03-02T08:12:35;95052.31;;;6.64;80.72
77207;BME280;66190;50.708;7.906;2024-03-02T08:15:00;95058.22;;;6.79;80.35
77207;BME280;66190;50.708;7.906;2024-03-02T08:17:25;95059.38;;;6.96;80.17
77207;BME280;66190;50.708;7.906;2024-03-02T08:19:51;95053.91;;;6.78;79.78
77207;BME280;66190;50.708;7.906;2024-03-02T08:22:17;95045.34;;;7.01;79.60
77207;BME280;66190;50.708;7.906;2024-03-02T08:24:42;95053.72;;;7.11;79.19
77207;BME280;66190;50.708;7.906;2024-03-02T08:27:08;95058.44;;;7.15;78.79
77207;BME280;66190;50.708;7.906;2024-03-02T08:29:34;95055.81;;;7.02;78.50
77207;BME280;66190;50.708;7.906;2024-03-02T08:32:00;95066.19;;;7.23;78.06
77207;BME280;66190;50.708;7.906;2024-03-02T08:34:25;95064.81;;;7.45;77.83
77207;BME280;66190;50.708;7.906;2024-03-02T08:36:51;95073.75;;;7.33;77.53
77207;BME280;66190;50.708;7.906;2024-03-02T08:39:17;95073.69;;;7.39;76.88
77207;BME280;66190;50.708;7.906;2024-03-02T08:41:45;95069.88;;;7.53;76.84
77207;BME280;66190;50.708;7.906;2024-03-02T08:44:12;95071.31;;;7.80;75.79
77207;BME280;66190;50.708;7.906;2024-03-02T08:46:39;95081.09;;;7.93;75.83
77207;BME280;66190;50.708;7.906;2024-03-02T08:49:04;95082.28;;;7.97;75.23
77207;BME280;66190;50.708;7.906;2024-03-02T08:51:30;95086.38;;;7.99;74.57
77207;BME280;66190;50.708;7.906;2024-03-02T08:53:57;95086.44;;;7.93;74.88
77207;BME280;66190;50.708;7.906;2024-03-02T08:56:23;95077.66;;;7.86;75.49
77207;BME280;66190;50.708;7.906;2024-03-02T08:58:49;95083.09;;;7.97;75.86
77207;BME280;66190;50.708;7.906;2024-03-02T09:01:15;95085.59;;;7.92;75.53
77207;BME280;66190;50.708;7.906;2024-03-02T09:03:42;95081.75;;;7.88;75.54
77207;BME280;66190;50.708;7.906;2024-03-02T09:06:10;95083.13;;;7.73;75.62
77207;BME280;66190;50.708;7.906;2024-03-02T09:08:35;95085.34;;;8.00;75.92
77207;BME280;66190;50.708;7.906;2024-03-02T09:11:02;95079.69;;;8.08;75.17
77207;BME280;66190;50.708;7.906;2024-03-02T09:13:28;95080.47;;;8.16;74.93
77207;BME280;66190;50.708;7.906;2024-03-02T09:15:54;95094.53;;;8.11;74.12
77207;BME280;66190;50.708;7.906;2024-03-02T09:18:19;95092.88;;;8.35;74.13
77207;BME280;66190;50.708;7.906;2024-03-02T09:20:44;95088.19;;;8.30;73.76
77207;BME280;66190;50.708;7.906;2024-03-02T09:23:11;95086.16;;;8.26;73.28
77207;BME280;66190;50.708;7.906;2024-03-02T09:25:36;95085.97;;;8.21;73.75
77207;BME280;66190;50.708;7.906;2024-03-02T09:28:02;95090.56;;;7.95;74.13
77207;BME280;66190;50.708;7.906;2024-03-02T09:30:28;95086.38;;;7.99;74.07
77207;BME280;66190;50.708;7.906;2024-03-02T09:32:53;95077.69;;;8.29;73.82
77207;BME280;66190;50.708;7.906;2024-03-02T09:35:19;95082.78;;;8.55;73.79
77207;BME280;66190;50.708;7.906;2024-03-02T09:37:45;95086.94;;;8.51;73.12
77207;BME280;66190;50.708;7.906;2024-03-02T09:40:11;95087.00;;;8.62;72.05
77207;BME280;66190;50.708;7.906;2024-03-02T09:42:37;95069.06;;;8.63;71.43
77207;BME280;66190;50.708;7.906;2024-03-02T09:45:02;95075.81;;;8.83;71.85
77207;BME280;66190;50.708;7.906;2024-03-02T09:47:28;95086.41;;;8.78;70.84
77207;BME280;66190;50.708;7.906;2024-03-02T09:49:54;95072.66;;;9.04;71.49
77207;BME280;66190;50.708;7.906;2024-03-02T09:52:22;95066.00;;;9.37;71.46
77207;BME280;66190;50.708;7.906;2024-03-02T09:54:48;95060.47;;;9.20;69.84
77207;BME280;66190;50.708;7.906;2024-03-02T09:57:14;95060.22;;;9.51;69.59
77207;BME280;66190;50.708;7.906;2024-03-02T09:59:39;95065.91;;;9.43;70.24
77207;BME280;66190;50.708;7.906;2024-03-02T10:02:05;95063.84;;;9.57;68.26
77207;BME280;66190;50.708;7.906;2024-03-02T10:04:32;95066.88;;;9.60;68.46
77207;BME280;66190;50.708;7.906;2024-03-02T10:07:15;95051.84;;;9.82;68.22
77207;BME280;66190;50.708;7.906;2024-03-02T10:09:42;95053.38;;;10.01;67.98
77207;BME280;66190;50.708;7.906;2024-03-02T10:12:09;95055.47;;;9.88;67.83
77207;BME280;66190;50.708;7.906;2024-03-02T10:14:34;95050.81;;;10.06;66.88
77207;BME280;66190;50.708;7.906;2024-03-02T10:17:04;95049.44;;;10.27;67.45
77207;BME280;66190;50.708;7.906;2024-03-02T10:19:30;95046.84;;;9.97;66.57
77207;BME280;66190;50.708;7.906;2024-03-02T10:22:01;95058.44;;;10.21;66.62
77207;BME280;66190;50.708;7.906;2024-03-02T10:24:27;95056.06;;;10.01;66.41
77207;BME280;66190;50.708;7.906;2024-03-02T10:26:53;95041.38;;;10.39;66.52
77207;BME280;66190;50.708;7.906;2024-03-02T10:29:19;95043.41;;;10.71;65.64
77207;BME280;66190;50.708;7.906;2024-03-02T10:31:45;95048.44;;;11.07;64.71
77207;BME280;66190;50.708;7.906;2024-03-02T10:34:12;95043.41;;;10.71;63.65
77207;BME280;66190;50.708;7.906;2024-03-02T10:36:41;95044.16;;;10.55;64.11
77207;BME280;66190;50.708;7.906;2024-03-02T10:39:08;95041.22;;;10.68;64.48
77207;BME280;66190;50.708;7.906;2024-03-02T10:41:35;95040.66;;;11.22;63.28
77207;BME280;66190;50.708;7.906;2024-03-02T10:44:07;95038.69;;;11.46;62.48
77207;BME280;66190;50.708;7.906;2024-03-02T10:46:35;95044.25;;;11.56;61.81
77207;BME280;66190;50.708;7.906;2024-03-02T10:49:01;95051.56;;;11.44;61.39
77207;BME280;66190;50.708;7.906;2024-03-02T10:51:28;95047.78;;;11.28;62.17
77207;BME280;66190;50.708;7.906;2024-03-02T10:53:57;95044.84;;;11.30;61.29
77207;BME280;66190;50.708;7.906;2024-03-02T10:56:33;95046.09;;;11.67;61.71
77207;BME280;66190;50.708;7.906;2024-03-02T11:01:34;95045.09;;;11.73;59.62
77207;BME280;66190;50.708;7.906;2024-03-02T11:04:02;95034.31;;;12.06;60.40
77207;BME280;66190;50.708;7.906;2024-03-02T11:06:30;95032.84;;;12.15;59.33
77207;BME280;66190;50.708;7.906;2024-03-02T11:09:00;95031.31;;;12.57;58.98
77207;BME280;66190;50.708;7.906;2024-03-02T11:11:32;95026.94;;;13.16;57.67
77207;BME280;66190;50.708;7.906;2024-03-02T11:14:01;95027.47;;;12.97;57.47
77207;BME280;66190;50.708;7.906;2024-03-02T11:16:35;95026.84;;;13.06;57.05
77207;BME280;66190;50.708;7.906;2024-03-02T11:19:06;95028.41;;;13.02;57.56
77207;BME280;66190;50.708;7.906;2024-03-02T11:21:33;95036.47;;;12.42;58.03
77207;BME280;66190;50.708;7.906;2024-03-02T11:23:59;95032.56;;;11.95;59.83
77207;BME280;66190;50.708;7.906;2024-03-02T11:26:25;95027.06;;;12.07;60.55
77207;BME280;66190;50.708;7.906;2024-03-02T11:28:51;95022.66;;;11.68;61.00
77207;BME280;66190;50.708;7.906;2024-03-02T11:31:16;95026.00;;;11.30;61.75
77207;BME280;66190;50.708;7.906;2024-03-02T11:33:42;95037.97;;;10.94;62.89
77207;BME280;66190;50.708;7.906;2024-03-02T11:36:08;95025.75;;;11.31;63.07
77207;BME280;66190;50.708;7.906;2024-03-02T11:38:35;95023.78;;;11.27;62.47
77207;BME280;66190;50.708;7.906;2024-03-02T11:41:10;95023.91;;;11.48;61.98
77207;BME280;66190;50.708;7.906;2024-03-02T11:43:39;95024.38;;;12.07;60.65
77207;BME280;66190;50.708;7.906;2024-03-02T11:46:05;95031.38;;;12.24;60.54
77207;BME280;66190;50.708;7.906;2024-03-02T11:48:39;95026.50;;;12.60;59.58
77207;BME280;66190;50.708;7.906;2024-03-02T11:51:04;95030.75;;;12.39;59.37
77207;BME280;66190;50.708;7.906;2024-03-02T11:53:30;95028.03;;;12.55;58.98
77207;BME280;66190;50.708;7.906;2024-03-02T11:55:58;95029.91;;;12.17;59.77
77207;BME280;66190;50.708;7.906;2024-03-02T11:58:24;95018.66;;;12.03;60.24
77207;BME280;66190;50.708;7.906;2024-03-02T12:00:55;95026.50;;;12.05;61.28
77207;BME280;66190;50.708;7.906;2024-03-02T12:03:23;95019.69;;;12.02;61.74
77207;BME280;66190;50.708;7.906;2024-03-02T12:05:57;95030.59;;;11.63;61.86
77207;BME280;66190;50.708;7.906;2024-03-02T12:08:23;95027.59;;;11.59;62.35
77207;BME280;66190;50.708;7.906;2024-03-02T12:11:00;95021.59;;;11.69;62.36
77207;BME280;66190;50.708;7.906;2024-03-02T12:13:28;95022.09;;;11.82;61.68
77207;BME280;66190;50.708;7.906;2024-03-02T12:15:54;95020.06;;;11.73;61.89
77207;BME280;66190;50.708;7.906;2024-03-02T12:18:21;95017.09;;;11.91;61.51
77207;BME280;66190;50.708;7.906;2024-03-02T12:20:48;95018.78;;;11.64;61.74
77207;BME280;66190;50.708;7.906;2024-03-02T12:23:14;95017.03;;;11.69;61.85
77207;BME280;66190;50.708;7.906;2024-03-02T12:25:40;95006.41;;;11.96;60.46
77207;BME280;66190;50.708;7.906;2024-03-02T12:28:05;95008.16;;;12.23;60.51
77207;BME280;66190;50.708;7.906;2024-03-02T12:30:34;94998.78;;;12.47;59.35
77207;BME280;66190;50.708;7.906;2024-03-02T12:33:00;94999.31;;;12.66;59.26
77207;BME280;66190;50.708;7.906;2024-03-02T12:35:26;95002.13;;;12.76;58.78
77207;BME280;66190;50.708;7.906;2024-03-02T12:37:52;94995.53;;;12.89;58.75
77207;BME280;66190;50.708;7.906;2024-03-02T12:40:19;94990.81;;;13.01;57.70
77207;BME280;66190;50.708;7.906;2024-03-02T12:42:45;94991.66;;;12.80;57.28
77207;BME280;66190;50.708;7.906;2024-03-02T12:45:12;94986.25;;;12.80;58.55
77207;BME280;66190;50.708;7.906;2024-03-02T12:47:39;94987.78;;;13.19;57.63
77207;BME280;66190;50.708;7.906;2024-03-02T12:50:06;94983.16;;;13.14;56.98
77207;BME280;66190;50.708;7.906;2024-03-02T12:52:32;94989.69;;;12.97;57.15
77207;BME280;66190;50.708;7.906;2024-03-02T12:54:59;94977.88;;;13.24;57.08
77207;BME280;66190;50.708;7.906;2024-03-02T12:57:26;94977.88;;;13.24;56.57
77207;BME280;66190;50.708;7.906;2024-03-02T13:00:03;94975.44;;;13.23;56.86
77207;BME280;66190;50.708;7.906;2024-03-02T13:02:35;94978.47;;;13.31;55.73
77207;BME280;66190;50.708;7.906;2024-03-02T13:05:01;94984.22;;;13.66;54.97
77207;BME280;66190;50.708;7.906;2024-03-02T13:07:27;94974.41;;;13.29;55.22
77207;BME280;66190;50.708;7.906;2024-03-02T13:09:53;94978.22;;;13.06;55.62
77207;BME280;66190;50.708;7.906;2024-03-02T13:12:24;94977.06;;;12.81;56.13